sensor_id;sensor_type;location;lat;lon;timestamp;P1;durP1;ratioP1;P2;durP2;ratioP2
13897;SDS011;7019;50.766;4.474;2024-01-06T00:01:11;6.87;;;3.10;;
13897;SDS011;7019;50.766;4.474;2024-01-06T00:03:41;6.07;;;2.80;;
13897;SDS011;7019;50.766;4.474;2024-01-06T00:06:11;3.87;;;3.07;;
13897;SDS011;7019;50.766;4.474;2024-01-06T00:08:38;6.83;;;3.13;;
13897;SDS011;7019;50.766;4.474;2024-01-06T00:11:05;6.57;;;3.20;;
13897;SDS011;7019;50.766;4.474;2024-01-06T00:13:32;8.50;;;3.40;;
13897;SDS011;7019;50.766;4.474;2024-01-06T00:16:00;6.20;;;2.93;;
13897;SDS011;7019;50.766;4.474;2024-01-06T00:18:28;12.20;;;3.27;;
13897;SDS011;7019;50.766;4.474;2024-01-06T00:20:55;9.17;;;3.70;;
13897;SDS011;7019;50.766;4.474;2024-01-06T00:23:22;4.83;;;3.03;;
13897;SDS011;7019;50.766;4.474;2024-01-06T00:25:49;7.10;;;2.93;;
13897;SDS011;7019;50.766;4.474;2024-01-06T00:28:16;5.17;;;2.87;;
13897;SDS011;7019;50.766;4.474;2024-01-06T00:30:43;8.93;;;3.67;;
13897;SDS011;7019;50.766;4.474;2024-01-06T00:33:11;8.47;;;3.13;;
13897;SDS011;7019;50.766;4.474;2024-01-06T00:35:40;5.90;;;3.30;;
13897;SDS011;7019;50.766;4.474;2024-01-06T00:38:07;5.77;;;2.93;;
13897;SDS011;7019;50.766;4.474;2024-01-06T00:40:34;4.87;;;2.33;;
13897;SDS011;7019;50.766;4.474;2024-01-06T00:43:01;6.90;;;2.73;;
13897;SDS011;7019;50.766;4.474;2024-01-06T00:45:28;6.53;;;2.33;;
13897;SDS011;7019;50.766;4.474;2024-01-06T00:47:56;4.13;;;2.50;;
13897;SDS011;7019;50.766;4.474;2024-01-06T00:50:23;6.90;;;2.83;;
13897;SDS011;7019;50.766;4.474;2024-01-06T00:52:51;7.27;;;2.67;;
13897;SDS011;7019;50.766;4.474;2024-01-06T00:55:18;5.67;;;2.13;;
13897;SDS011;7019;50.766;4.474;2024-01-06T00:57:45;4.60;;;2.70;;
13897;SDS011;7019;50.766;4.474;2024-01-06T01:00:13;2.23;;;1.90;;
13897;SDS011;7019;50.766;4.474;2024-01-06T01:02:40;4.30;;;2.33;;
13897;SDS011;7019;50.766;4.474;2024-01-06T01:05:07;4.83;;;2.50;;
13897;SDS011;7019;50.766;4.474;2024-01-06T01:07:35;5.70;;;2.20;;
13897;SDS011;7019;50.766;4.474;2024-01-06T01:10:04;3.77;;;2.30;;
13897;SDS011;7019;50.766;4.474;2024-01-06T01:12:31;4.53;;;2.40;;
13897;SDS011;7019;50.766;4.474;2024-01-06T01:14:58;6.23;;;2.53;;
13897;SDS011;7019;50.766;4.474;2024-01-06T01:17:25;5.57;;;2.53;;
13897;SDS011;7019;50.766;4.474;2024-01-06T01:19:52;4.53;;;2.67;;
13897;SDS011;7019;50.766;4.474;2024-01-06T01:22:20;4.10;;;2.70;;
13897;SDS011;7019;50.766;4.474;2024-01-06T01:24:47;9.63;;;2.50;;
13897;SDS011;7019;50.766;4.474;2024-01-06T01:27:16;5.07;;;2.40;;
13897;SDS011;7019;50.766;4.474;2024-01-06T01:29:43;7.03;;;2.90;;
13897;SDS011;7019;50.766;4.474;2024-01-06T01:32:10;7.33;;;2.43;;
13897;SDS011;7019;50.766;4.474;2024-01-06T01:34:37;4.33;;;2.93;;
13897;SDS011;7019;50.766;4.474;2024-01-06T01:37:04;3.73;;;2.20;;
13897;SDS011;7019;50.766;4.474;2024-01-06T01:39:31;3.93;;;2.47;;
13897;SDS011;7019;50.766;4.474;2024-01-06T01:41:58;5.77;;;2.77;;
13897;SDS011;7019;50.766;4.474;2024-01-06T01:44:26;4.57;;;2.33;;
13897;SDS011;7019;50.766;4.474;2024-01-06T01:46:53;5.60;;;2.53;;
13897;SDS011;7019;50.766;4.474;2024-01-06T01:49:20;3.53;;;2.37;;
13897;SDS011;7019;50.766;4.474;2024-01-06T01:51:48;8.17;;;3.30;;
13897;SDS011;7019;50.766;4.474;2024-01-06T01:54:16;6.30;;;2.67;;
13897;SDS011;7019;50.766;4.474;2024-01-06T01:56:43;7.90;;;3.10;;
13897;SDS011;7019;50.766;4.474;2024-01-06T01:59:11;3.73;;;2.27;;
13897;SDS011;7019;50.766;4.474;2024-01-06T02:01:41;7.57;;;2.40;;
13897;SDS011;7019;50.766;4.474;2024-01-06T02:04:08;4.43;;;2.50;;
13897;SDS011;7019;50.766;4.474;2024-01-06T02:06:35;7.73;;;2.20;;
13897;SDS011;7019;50.766;4.474;2024-01-06T02:09:02;9.50;;;2.40;;
13897;SDS011;7019;50.766;4.474;2024-01-06T02:11:30;5.43;;;1.90;;
13897;SDS011;7019;50.766;4.474;2024-01-06T02:13:57;4.53;;;2.37;;
13897;SDS011;7019;50.766;4.474;2024-01-06T02:16:25;3.73;;;1.53;;
13897;SDS011;7019;50.766;4.474;2024-01-06T02:18:54;3.77;;;1.37;;
13897;SDS011;7019;50.766;4.474;2024-01-06T02:21:23;3.53;;;1.30;;
13897;SDS011;7019;50.766;4.474;2024-01-06T02:23:51;3.60;;;1.87;;
13897;SDS011;7019;50.766;4.474;2024-01-06T02:26:18;3.47;;;1.40;;
13897;SDS011;7019;50.766;4.474;2024-01-06T02:28:46;2.23;;;1.27;;
13897;SDS011;7019;50.766;4.474;2024-01-06T02:31:14;2.57;;;1.10;;
13897;SDS011;7019;50.766;4.474;2024-01-06T02:33:41;1.60;;;1.07;;
13897;SDS011;7019;50.766;4.474;2024-01-06T02:36:08;5.53;;;1.30;;
13897;SDS011;7019;50.766;4.474;2024-01-06T02:38:35;2.47;;;1.23;;
13897;SDS011;7019;50.766;4.474;2024-01-06T02:41:03;2.13;;;1.33;;
13897;SDS011;7019;50.766;4.474;2024-01-06T02:43:30;1.80;;;1.23;;
13897;SDS011;7019;50.766;4.474;2024-01-06T02:45:57;2.27;;;1.50;;
13897;SDS011;7019;50.766;4.474;2024-01-06T02:48:24;2.10;;;1.23;;
13897;SDS011;7019;50.766;4.474;2024-01-06T02:50:51;3.53;;;1.33;;
13897;SDS011;7019;50.766;4.474;2024-01-06T02:53:19;3.67;;;1.00;;
13897;SDS011;7019;50.766;4.474;2024-01-06T02:55:46;1.33;;;0.97;;
13897;SDS011;7019;50.766;4.474;2024-01-06T02:58:14;1.83;;;0.87;;
13897;SDS011;7019;50.766;4.474;2024-01-06T03:00:41;1.40;;;0.73;;
13897;SDS011;7019;50.766;4.474;2024-01-06T03:03:07;2.47;;;1.00;;
13897;SDS011;7019;50.766;4.474;2024-01-06T03:05:34;1.00;;;0.60;;
13897;SDS011;7019;50.766;4.474;2024-01-06T03:08:02;1.70;;;0.80;;
13897;SDS011;7019;50.766;4.474;2024-01-06T03:10:30;2.80;;;1.10;;
13897;SDS011;7019;50.766;4.474;2024-01-06T03:12:57;1.00;;;0.70;;
13897;SDS011;7019;50.766;4.474;2024-01-06T03:15:25;1.13;;;0.70;;
13897;SDS011;7019;50.766;4.474;2024-01-06T03:17:52;2.13;;;1.13;;
13897;SDS011;7019;50.766;4.474;2024-01-06T03:20:19;1.10;;;0.70;;
13897;SDS011;7019;50.766;4.474;2024-01-06T03:22:46;1.53;;;0.80;;
13897;SDS011;7019;50.766;4.474;2024-01-06T03:25:14;1.50;;;0.90;;
13897;SDS011;7019;50.766;4.474;2024-01-06T03:27:41;2.23;;;0.87;;
13897;SDS011;7019;50.766;4.474;2024-01-06T03:30:09;1.83;;;0.90;;
13897;SDS011;7019;50.766;4.474;2024-01-06T03:32:38;1.80;;;0.67;;
13897;SDS011;7019;50.766;4.474;2024-01-06T03:35:05;1.00;;;0.60;;
13897;SDS011;7019;50.766;4.474;2024-01-06T03:37:33;1.27;;;0.80;;
13897;SDS011;7019;50.766;4.474;2024-01-06T03:40:00;1.50;;;0.97;;
13897;SDS011;7019;50.766;4.474;2024-01-06T03:42:28;1.13;;;0.80;;
13897;SDS011;7019;50.766;4.474;2024-01-06T03:44:55;3.10;;;1.10;;
13897;SDS011;7019;50.766;4.474;2024-01-06T03:47:22;2.37;;;0.90;;
13897;SDS011;7019;50.766;4.474;2024-01-06T03:49:50;1.70;;;1.10;;
13897;SDS011;7019;50.766;4.474;2024-01-06T03:52:17;2.70;;;1.37;;
13897;SDS011;7019;50.766;4.474;2024-01-06T03:54:44;4.57;;;1.10;;
13897;SDS011;7019;50.766;4.474;2024-01-06T03:57:12;3.10;;;1.30;;
13897;SDS011;7019;50.766;4.474;2024-01-06T03:59:38;4.80;;;1.63;;
13897;SDS011;7019;50.766;4.474;2024-01-06T04:02:06;1.80;;;1.50;;
13897;SDS011;7019;50.766;4.474;2024-01-06T04:04:33;2.93;;;2.00;;
13897;SDS011;7019;50.766;4.474;2024-01-06T04:07:01;6.00;;;2.17;;
13897;SDS011;7019;50.766;4.474;2024-01-06T04:09:28;4.20;;;3.30;;
13897;SDS011;7019;50.766;4.474;2024-01-06T04:11:55;7.87;;;3.97;;
13897;SDS011;7019;50.766;4.474;2024-01-06T04:14:22;8.57;;;4.13;;
13897;SDS011;7019;50.766;4.474;2024-01-06T04:16:49;7.03;;;4.83;;
13897;SDS011;7019;50.766;4.474;2024-01-06T04:19:18;7.43;;;4.40;;
13897;SDS011;7019;50.766;4.474;2024-01-06T04:21:45;9.93;;;6.47;;
13897;SDS011;7019;50.766;4.474;2024-01-06T04:24:14;13.90;;;8.00;;
13897;SDS011;7019;50.766;4.474;2024-01-06T04:26:41;17.30;;;8.00;;
13897;SDS011;7019;50.766;4.474;2024-01-06T04:29:10;14.97;;;7.83;;
13897;SDS011;7019;50.766;4.474;2024-01-06T04:31:37;15.33;;;9.30;;
13897;SDS011;7019;50.766;4.474;2024-01-06T04:34:04;13.63;;;8.40;;
13897;SDS011;7019;50.766;4.474;2024-01-06T04:36:31;18.37;;;9.67;;
13897;SDS011;7019;50.766;4.474;2024-01-06T04:38:58;16.87;;;9.40;;
13897;SDS011;7019;50.766;4.474;2024-01-06T04:41:27;16.17;;;9.17;;
13897;SDS011;7019;50.766;4.474;2024-01-06T04:43:54;15.13;;;9.50;;
13897;SDS011;7019;50.766;4.474;2024-01-06T04:46:21;16.07;;;9.60;;
13897;SDS011;7019;50.766;4.474;2024-01-06T04:48:48;16.10;;;9.07;;
13897;SDS011;7019;50.766;4.474;2024-01-06T04:51:15;15.90;;;9.30;;
13897;SDS011;7019;50.766;4.474;2024-01-06T04:53:42;17.23;;;10.17;;
13897;SDS011;7019;50.766;4.474;2024-01-06T04:56:09;20.63;;;9.97;;
13897;SDS011;7019;50.766;4.474;2024-01-06T04:58:38;16.73;;;10.23;;
13897;SDS011;7019;50.766;4.474;2024-01-06T05:01:05;21.57;;;10.27;;
13897;SDS011;7019;50.766;4.474;2024-01-06T05:03:33;18.40;;;9.93;;
13897;SDS011;7019;50.766;4.474;2024-01-06T05:06:00;17.57;;;11.23;;
13897;SDS011;7019;50.766;4.474;2024-01-06T05:08:27;19.47;;;10.90;;
13897;SDS011;7019;50.766;4.474;2024-01-06T05:10:56;23.73;;;11.73;;
13897;SDS011;7019;50.766;4.474;2024-01-06T05:13:23;20.30;;;11.47;;
13897;SDS011;7019;50.766;4.474;2024-01-06T05:15:51;18.47;;;11.97;;
13897;SDS011;7019;50.766;4.474;2024-01-06T05:18:18;20.20;;;11.23;;
13897;SDS011;7019;50.766;4.474;2024-01-06T05:20:45;23.07;;;11.97;;
13897;SDS011;7019;50.766;4.474;2024-01-06T05:23:13;20.83;;;10.60;;
13897;SDS011;7019;50.766;4.474;2024-01-06T05:25:40;21.83;;;11.27;;
13897;SDS011;7019;50.766;4.474;2024-01-06T05:28:07;18.87;;;10.40;;
13897;SDS011;7019;50.766;4.474;2024-01-06T05:30:34;18.07;;;10.60;;
13897;SDS011;7019;50.766;4.474;2024-01-06T05:33:03;20.17;;;10.50;;
13897;SDS011;7019;50.766;4.474;2024-01-06T05:35:30;18.23;;;10.20;;
13897;SDS011;7019;50.766;4.474;2024-01-06T05:37:57;17.23;;;9.50;;
13897;SDS011;7019;50.766;4.474;2024-01-06T05:40:24;17.47;;;8.67;;
13897;SDS011;7019;50.766;4.474;2024-01-06T05:42:51;17.27;;;8.93;;
13897;SDS011;7019;50.766;4.474;2024-01-06T05:45:20;16.67;;;8.33;;
13897;SDS011;7019;50.766;4.474;2024-01-06T05:47:47;17.10;;;8.83;;
13897;SDS011;7019;50.766;4.474;2024-01-06T05:50:16;17.30;;;8.90;;
13897;SDS011;7019;50.766;4.474;2024-01-06T05:52:43;13.80;;;8.10;;
13897;SDS011;7019;50.766;4.474;2024-01-06T05:55:12;12.47;;;7.47;;
13897;SDS011;7019;50.766;4.474;2024-01-06T05:57:39;14.77;;;8.00;;
13897;SDS011;7019;50.766;4.474;2024-01-06T06:00:07;15.63;;;8.77;;
13897;SDS011;7019;50.766;4.474;2024-01-06T06:02:36;15.07;;;7.83;;
13897;SDS011;7019;50.766;4.474;2024-01-06T06:05:04;12.27;;;7.77;;
13897;SDS011;7019;50.766;4.474;2024-01-06T06:07:32;15.77;;;7.77;;
13897;SDS011;7019;50.766;4.474;2024-01-06T06:10:04;15.27;;;8.80;;
13897;SDS011;7019;50.766;4.474;2024-01-06T06:12:33;17.30;;;9.73;;
13897;SDS011;7019;50.766;4.474;2024-01-06T06:15:00;13.47;;;8.30;;
13897;SDS011;7019;50.766;4.474;2024-01-06T06:17:28;15.10;;;7.83;;
13897;SDS011;7019;50.766;4.474;2024-01-06T06:19:56;16.37;;;8.10;;
13897;SDS011;7019;50.766;4.474;2024-01-06T06:22:23;14.50;;;6.80;;
13897;SDS011;7019;50.766;4.474;2024-01-06T06:24:53;11.17;;;5.47;;
13897;SDS011;7019;50.766;4.474;2024-01-06T06:27:20;12.53;;;5.87;;
13897;SDS011;7019;50.766;4.474;2024-01-06T06:29:47;6.77;;;4.93;;
13897;SDS011;7019;50.766;4.474;2024-01-06T06:32:14;9.97;;;5.00;;
13897;SDS011;7019;50.766;4.474;2024-01-06T06:34:42;5.93;;;4.57;;
13897;SDS011;7019;50.766;4.474;2024-01-06T06:37:09;6.13;;;3.67;;
13897;SDS011;7019;50.766;4.474;2024-01-06T06:39:36;5.50;;;3.67;;
13897;SDS011;7019;50.766;4.474;2024-01-06T06:42:05;6.33;;;4.13;;
13897;SDS011;7019;50.766;4.474;2024-01-06T06:44:32;7.00;;;4.40;;
13897;SDS011;7019;50.766;4.474;2024-01-06T06:46:59;7.80;;;3.70;;
13897;SDS011;7019;50.766;4.474;2024-01-06T06:49:26;7.93;;;4.23;;
13897;SDS011;7019;50.766;4.474;2024-01-06T06:51:53;7.60;;;4.03;;
13897;SDS011;7019;50.766;4.474;2024-01-06T06:54:21;5.17;;;4.07;;
13897;SDS011;7019;50.766;4.474;2024-01-06T06:56:48;7.27;;;3.87;;
13897;SDS011;7019;50.766;4.474;2024-01-06T06:59:16;6.90;;;4.50;;
13897;SDS011;7019;50.766;4.474;2024-01-06T07:01:43;6.03;;;4.40;;
13897;SDS011;7019;50.766;4.474;2024-01-06T07:04:10;6.70;;;4.30;;
13897;SDS011;7019;50.766;4.474;2024-01-06T07:06:37;6.73;;;4.90;;
13897;SDS011;7019;50.766;4.474;2024-01-06T07:09:04;10.53;;;4.63;;
13897;SDS011;7019;50.766;4.474;2024-01-06T07:11:31;9.70;;;5.20;;
13897;SDS011;7019;50.766;4.474;2024-01-06T07:13:58;10.50;;;5.57;;
13897;SDS011;7019;50.766;4.474;2024-01-06T07:16:27;8.13;;;5.00;;
13897;SDS011;7019;50.766;4.474;2024-01-06T07:18:54;8.70;;;5.37;;
13897;SDS011;7019;50.766;4.474;2024-01-06T07:21:21;10.90;;;6.13;;
13897;SDS011;7019;50.766;4.474;2024-01-06T07:23:49;12.43;;;5.50;;
13897;SDS011;7019;50.766;4.474;2024-01-06T07:26:16;8.43;;;5.60;;
13897;SDS011;7019;50.766;4.474;2024-01-06T07:28:43;7.77;;;5.07;;
13897;SDS011;7019;50.766;4.474;2024-01-06T07:31:10;9.90;;;5.43;;
13897;SDS011;7019;50.766;4.474;2024-01-06T07:33:39;11.13;;;5.67;;
13897;SDS011;7019;50.766;4.474;2024-01-06T07:36:06;9.17;;;5.87;;
13897;SDS011;7019;50.766;4.474;2024-01-06T07:38:33;11.70;;;5.60;;
13897;SDS011;7019;50.766;4.474;2024-01-06T07:41:00;8.17;;;5.87;;
13897;SDS011;7019;50.766;4.474;2024-01-06T07:43:29;9.70;;;6.63;;
13897;SDS011;7019;50.766;4.474;2024-01-06T07:45:56;12.20;;;6.47;;
13897;SDS011;7019;50.766;4.474;2024-01-06T07:48:24;10.37;;;6.70;;
13897;SDS011;7019;50.766;4.474;2024-01-06T07:50:53;10.20;;;6.37;;
13897;SDS011;7019;50.766;4.474;2024-01-06T07:53:20;12.53;;;6.97;;
13897;SDS011;7019;50.766;4.474;2024-01-06T07:55:47;8.73;;;6.10;;
13897;SDS011;7019;50.766;4.474;2024-01-06T07:58:14;13.50;;;7.33;;
13897;SDS011;7019;50.766;4.474;2024-01-06T08:00:41;8.40;;;6.07;;
13897;SDS011;7019;50.766;4.474;2024-01-06T08:03:08;15.00;;;8.00;;
13897;SDS011;7019;50.766;4.474;2024-01-06T08:05:36;13.17;;;7.40;;
13897;SDS011;7019;50.766;4.474;2024-01-06T08:08:05;9.57;;;6.43;;
13897;SDS011;7019;50.766;4.474;2024-01-06T08:10:32;11.00;;;7.30;;
13897;SDS011;7019;50.766;4.474;2024-01-06T08:12:59;10.47;;;7.37;;
13897;SDS011;7019;50.766;4.474;2024-01-06T08:15:27;8.93;;;6.47;;
13897;SDS011;7019;50.766;4.474;2024-01-06T08:17:54;12.07;;;6.47;;
13897;SDS011;7019;50.766;4.474;2024-01-06T08:20:21;8.50;;;5.97;;
13897;SDS011;7019;50.766;4.474;2024-01-06T08:22:48;12.60;;;5.90;;
13897;SDS011;7019;50.766;4.474;2024-01-06T08:25:17;11.40;;;6.20;;
13897;SDS011;7019;50.766;4.474;2024-01-06T08:27:44;12.17;;;5.83;;
13897;SDS011;7019;50.766;4.474;2024-01-06T08:30:11;7.93;;;5.20;;
13897;SDS011;7019;50.766;4.474;2024-01-06T08:32:39;8.27;;;5.70;;
13897;SDS011;7019;50.766;4.474;2024-01-06T08:35:06;9.10;;;6.27;;
13897;SDS011;7019;50.766;4.474;2024-01-06T08:37:34;12.40;;;5.53;;
13897;SDS011;7019;50.766;4.474;2024-01-06T08:40:01;9.97;;;6.03;;
13897;SDS011;7019;50.766;4.474;2024-01-06T08:42:31;10.20;;;6.47;;
13897;SDS011;7019;50.766;4.474;2024-01-06T08:44:58;13.40;;;6.57;;
13897;SDS011;7019;50.766;4.474;2024-01-06T08:47:25;12.00;;;6.47;;
13897;SDS011;7019;50.766;4.474;2024-01-06T08:49:52;11.23;;;6.10;;
13897;SDS011;7019;50.766;4.474;2024-01-06T08:52:19;10.63;;;6.50;;
13897;SDS011;7019;50.766;4.474;2024-01-06T08:54:47;10.93;;;6.03;;
13897;SDS011;7019;50.766;4.474;2024-01-06T08:57:14;12.43;;;6.83;;
13897;SDS011;7019;50.766;4.474;2024-01-06T08:59:43;8.93;;;6.17;;
13897;SDS011;7019;50.766;4.474;2024-01-06T09:02:10;9.13;;;5.77;;
13897;SDS011;7019;50.766;4.474;2024-01-06T09:04:37;12.03;;;7.07;;
13897;SDS011;7019;50.766;4.474;2024-01-06T09:07:05;7.97;;;5.83;;
13897;SDS011;7019;50.766;4.474;2024-01-06T09:09:32;9.30;;;5.43;;
13897;SDS011;7019;50.766;4.474;2024-01-06T09:11:59;9.73;;;5.80;;
13897;SDS011;7019;50.766;4.474;2024-01-06T09:14:26;11.10;;;6.60;;
13897;SDS011;7019;50.766;4.474;2024-01-06T09:16:55;12.63;;;6.07;;
13897;SDS011;7019;50.766;4.474;2024-01-06T09:19:22;10.40;;;5.43;;
13897;SDS011;7019;50.766;4.474;2024-01-06T09:21:49;7.63;;;4.43;;
13897;SDS011;7019;50.766;4.474;2024-01-06T09:24:16;8.73;;;5.30;;
13897;SDS011;7019;50.766;4.474;2024-01-06T09:26:43;7.73;;;5.30;;
13897;SDS011;7019;50.766;4.474;2024-01-06T09:29:11;6.83;;;4.77;;
13897;SDS011;7019;50.766;4.474;2024-01-06T09:31:38;6.90;;;4.87;;
13897;SDS011;7019;50.766;4.474;2024-01-06T09:34:08;8.00;;;4.70;;
13897;SDS011;7019;50.766;4.474;2024-01-06T09:36:37;7.90;;;5.27;;
13897;SDS011;7019;50.766;4.474;2024-01-06T09:39:04;7.73;;;4.87;;
13897;SDS011;7019;50.766;4.474;2024-01-06T09:41:33;8.10;;;4.97;;
13897;SDS011;7019;50.766;4.474;2024-01-06T09:44:00;10.07;;;5.13;;
13897;SDS011;7019;50.766;4.474;2024-01-06T09:46:28;7.07;;;5.00;;
13897;SDS011;7019;50.766;4.474;2024-01-06T09:48:55;9.97;;;5.00;;
13897;SDS011;7019;50.766;4.474;2024-01-06T09:51:25;7.17;;;4.80;;
13897;SDS011;7019;50.766;4.474;2024-01-06T09:53:56;8.13;;;5.03;;
13897;SDS011;7019;50.766;4.474;2024-01-06T09:56:25;7.80;;;4.53;;
13897;SDS011;7019;50.766;4.474;2024-01-06T09:58:53;7.37;;;5.10;;
13897;SDS011;7019;50.766;4.474;2024-01-06T10:01:20;6.93;;;4.93;;
13897;SDS011;7019;50.766;4.474;2024-01-06T10:03:48;8.43;;;5.03;;
13897;SDS011;7019;50.766;4.474;2024-01-06T10:06:15;6.40;;;4.47;;
13897;SDS011;7019;50.766;4.474;2024-01-06T10:08:47;6.97;;;4.23;;
13897;SDS011;7019;50.766;4.474;2024-01-06T10:11:16;8.23;;;4.93;;
13897;SDS011;7019;50.766;4.474;2024-01-06T10:13:43;5.87;;;4.27;;
13897;SDS011;7019;50.766;4.474;2024-01-06T10:16:10;4.90;;;3.63;;
13897;SDS011;7019;50.766;4.474;2024-01-06T10:18:38;7.20;;;4.07;;
13897;SDS011;7019;50.766;4.474;2024-01-06T10:21:05;6.57;;;3.97;;
13897;SDS011;7019;50.766;4.474;2024-01-06T10:23:33;7.83;;;4.00;;
13897;SDS011;7019;50.766;4.474;2024-01-06T10:26:03;8.53;;;4.43;;
13897;SDS011;7019;50.766;4.474;2024-01-06T10:28:30;4.57;;;3.40;;
13897;SDS011;7019;50.766;4.474;2024-01-06T10:30:57;9.17;;;4.20;;
13897;SDS011;7019;50.766;4.474;2024-01-06T10:33:25;8.47;;;3.97;;
13897;SDS011;7019;50.766;4.474;2024-01-06T10:35:52;8.37;;;4.53;;
13897;SDS011;7019;50.766;4.474;2024-01-06T10:38:20;6.40;;;4.43;;
13897;SDS011;7019;50.766;4.474;2024-01-06T10:43:35;8.53;;;4.60;;
13897;SDS011;7019;50.766;4.474;2024-01-06T10:46:06;7.50;;;4.13;;
13897;SDS011;7019;50.766;4.474;2024-01-06T10:48:35;8.20;;;5.47;;
13897;SDS011;7019;50.766;4.474;2024-01-06T10:51:07;12.80;;;5.33;;
13897;SDS011;7019;50.766;4.474;2024-01-06T10:53:35;6.80;;;4.80;;
13897;SDS011;7019;50.766;4.474;2024-01-06T10:56:04;9.43;;;4.87;;
13897;SDS011;7019;50.766;4.474;2024-01-06T10:58:34;8.80;;;5.43;;
13897;SDS011;7019;50.766;4.474;2024-01-06T11:01:07;7.50;;;4.73;;
13897;SDS011;7019;50.766;4.474;2024-01-06T11:03:35;7.53;;;5.03;;
13897;SDS011;7019;50.766;4.474;2024-01-06T11:06:04;7.10;;;4.90;;
13897;SDS011;7019;50.766;4.474;2024-01-06T11:08:33;8.17;;;5.33;;
13897;SDS011;7019;50.766;4.474;2024-01-06T11:11:15;7.27;;;5.10;;
13897;SDS011;7019;50.766;4.474;2024-01-06T11:13:44;6.70;;;4.57;;
13897;SDS011;7019;50.766;4.474;2024-01-06T11:16:12;7.57;;;4.80;;
13897;SDS011;7019;50.766;4.474;2024-01-06T11:19:00;7.60;;;5.70;;
13897;SDS011;7019;50.766;4.474;2024-01-06T11:21:27;7.87;;;4.60;;
13897;SDS011;7019;50.766;4.474;2024-01-06T11:26:51;9.87;;;4.80;;
13897;SDS011;7019;50.766;4.474;2024-01-06T11:29:20;5.97;;;4.17;;
13897;SDS011;7019;50.766;4.474;2024-01-06T11:34:47;7.53;;;4.27;;
13897;SDS011;7019;50.766;4.474;2024-01-06T11:37:16;6.80;;;4.17;;
13897;SDS011;7019;50.766;4.474;2024-01-06T11:39:44;7.57;;;4.90;;
13897;SDS011;7019;50.766;4.474;2024-01-06T11:42:12;7.53;;;4.23;;
13897;SDS011;7019;50.766;4.474;2024-01-06T11:44:43;9.47;;;4.33;;
13897;SDS011;7019;50.766;4.474;2024-01-06T11:47:11;5.50;;;4.10;;
13897;SDS011;7019;50.766;4.474;2024-01-06T11:49:40;9.83;;;4.47;;
13897;SDS011;7019;50.766;4.474;2024-01-06T11:52:11;6.23;;;4.73;;
13897;SDS011;7019;50.766;4.474;2024-01-06T11:54:38;6.60;;;4.67;;
13897;SDS011;7019;50.766;4.474;2024-01-06T11:57:07;6.53;;;4.37;;
13897;SDS011;7019;50.766;4.474;2024-01-06T11:59:34;9.47;;;6.70;;
13897;SDS011;7019;50.766;4.474;2024-01-06T12:02:03;9.97;;;6.67;;
13897;SDS011;7019;50.766;4.474;2024-01-06T12:04:30;10.33;;;4.90;;
13897;SDS011;7019;50.766;4.474;2024-01-06T12:07:04;8.23;;;3.67;;
13897;SDS011;7019;50.766;4.474;2024-01-06T12:09:32;6.07;;;4.13;;
13897;SDS011;7019;50.766;4.474;2024-01-06T12:12:01;5.07;;;3.60;;
13897;SDS011;7019;50.766;4.474;2024-01-06T12:14:29;6.20;;;4.67;;
13897;SDS011;7019;50.766;4.474;2024-01-06T12:16:58;7.53;;;4.20;;
13897;SDS011;7019;50.766;4.474;2024-01-06T12:19:29;8.00;;;5.03;;
13897;SDS011;7019;50.766;4.474;2024-01-06T12:21:57;8.87;;;5.97;;
13897;SDS011;7019;50.766;4.474;2024-01-06T12:24:26;9.47;;;5.50;;
13897;SDS011;7019;50.766;4.474;2024-01-06T12:26:55;8.67;;;5.43;;
13897;SDS011;7019;50.766;4.474;2024-01-06T12:29:23;9.73;;;5.90;;
13897;SDS011;7019;50.766;4.474;2024-01-06T12:31:53;8.90;;;6.30;;
13897;SDS011;7019;50.766;4.474;2024-01-06T12:34:20;9.03;;;5.47;;
13897;SDS011;7019;50.766;4.474;2024-01-06T12:36:50;13.87;;;6.23;;
13897;SDS011;7019;50.766;4.474;2024-01-06T12:39:20;9.03;;;6.27;;
13897;SDS011;7019;50.766;4.474;2024-01-06T12:41:48;8.63;;;5.50;;
13897;SDS011;7019;50.766;4.474;2024-01-06T12:44:17;10.63;;;6.43;;
13897;SDS011;7019;50.766;4.474;2024-01-06T12:46:44;10.77;;;7.07;;
13897;SDS011;7019;50.766;4.474;2024-01-06T12:49:11;9.10;;;5.97;;
13897;SDS011;7019;50.766;4.474;2024-01-06T12:51:38;9.20;;;6.70;;
13897;SDS011;7019;50.766;4.474;2024-01-06T12:54:06;11.23;;;6.87;;
13897;SDS011;7019;50.766;4.474;2024-01-06T12:56:34;8.80;;;5.87;;
13897;SDS011;7019;50.766;4.474;2024-01-06T12:59:01;11.70;;;7.20;;
13897;SDS011;7019;50.766;4.474;2024-01-06T13:01:29;9.10;;;5.57;;
13897;SDS011;7019;50.766;4.474;2024-01-06T13:03:56;8.70;;;5.83;;
13897;SDS011;7019;50.766;4.474;2024-01-06T13:06:25;9.63;;;6.20;;
13897;SDS011;7019;50.766;4.474;2024-01-06T13:08:53;8.90;;;5.67;;
13897;SDS011;7019;50.766;4.474;2024-01-06T13:11:21;8.97;;;5.93;;
13897;SDS011;7019;50.766;4.474;2024-01-06T13:13:49;9.27;;;6.43;;
13897;SDS011;7019;50.766;4.474;2024-01-06T13:16:16;9.80;;;6.77;;
13897;SDS011;7019;50.766;4.474;2024-01-06T13:18:43;10.00;;;6.87;;
13897;SDS011;7019;50.766;4.474;2024-01-06T13:21:10;11.33;;;5.83;;
13897;SDS011;7019;50.766;4.474;2024-01-06T13:23:37;8.53;;;6.53;;
13897;SDS011;7019;50.766;4.474;2024-01-06T13:26:05;9.13;;;6.43;;
13897;SDS011;7019;50.766;4.474;2024-01-06T13:28:35;12.13;;;7.43;;
13897;SDS011;7019;50.766;4.474;2024-01-06T13:31:02;11.80;;;7.37;;
13897;SDS011;7019;50.766;4.474;2024-01-06T13:33:29;10.27;;;6.27;;
13897;SDS011;7019;50.766;4.474;2024-01-06T13:35:56;9.07;;;6.40;;
13897;SDS011;7019;50.766;4.474;2024-01-06T13:38:23;9.33;;;6.53;;
13897;SDS011;7019;50.766;4.474;2024-01-06T13:40:51;9.10;;;6.40;;
13897;SDS011;7019;50.766;4.474;2024-01-06T13:43:18;8.87;;;6.40;;
13897;SDS011;7019;50.766;4.474;2024-01-06T13:45:47;7.97;;;6.23;;
13897;SDS011;7019;50.766;4.474;2024-01-06T13:48:14;9.30;;;6.43;;
13897;SDS011;7019;50.766;4.474;2024-01-06T13:50:42;6.23;;;5.00;;
13897;SDS011;7019;50.766;4.474;2024-01-06T13:53:08;7.30;;;5.93;;
13897;SDS011;7019;50.766;4.474;2024-01-06T13:55:36;10.07;;;6.20;;
13897;SDS011;7019;50.766;4.474;2024-01-06T13:58:03;9.57;;;6.33;;
13897;SDS011;7019;50.766;4.474;2024-01-06T14:00:30;14.43;;;7.30;;
13897;SDS011;7019;50.766;4.474;2024-01-06T14:02:59;8.87;;;6.00;;
13897;SDS011;7019;50.766;4.474;2024-01-06T14:05:26;7.50;;;5.87;;
13897;SDS011;7019;50.766;4.474;2024-01-06T14:07:53;13.43;;;6.43;;
13897;SDS011;7019;50.766;4.474;2024-01-06T14:10:21;10.17;;;7.27;;
13897;SDS011;7019;50.766;4.474;2024-01-06T14:12:48;7.93;;;5.80;;
13897;SDS011;7019;50.766;4.474;2024-01-06T14:15:15;10.73;;;6.13;;
13897;SDS011;7019;50.766;4.474;2024-01-06T14:17:42;7.90;;;5.63;;
13897;SDS011;7019;50.766;4.474;2024-01-06T14:20:16;9.47;;;5.60;;
13897;SDS011;7019;50.766;4.474;2024-01-06T14:22:43;8.23;;;5.43;;
13897;SDS011;7019;50.766;4.474;2024-01-06T14:25:11;7.23;;;5.33;;
13897;SDS011;7019;50.766;4.474;2024-01-06T14:27:39;7.20;;;4.80;;
13897;SDS011;7019;50.766;4.474;2024-01-06T14:30:06;6.00;;;4.90;;
13897;SDS011;7019;50.766;4.474;2024-01-06T14:32:34;6.23;;;5.03;;
13897;SDS011;7019;50.766;4.474;2024-01-06T14:35:03;7.83;;;4.33;;
13897;SDS011;7019;50.766;4.474;2024-01-06T14:37:33;6.00;;;4.50;;
13897;SDS011;7019;50.766;4.474;2024-01-06T14:40:00;7.40;;;4.63;;
13897;SDS011;7019;50.766;4.474;2024-01-06T14:42:30;5.83;;;4.37;;
13897;SDS011;7019;50.766;4.474;2024-01-06T14:44:57;7.60;;;5.17;;
13897;SDS011;7019;50.766;4.474;2024-01-06T14:47:24;6.03;;;4.43;;
13897;SDS011;7019;50.766;4.474;2024-01-06T14:49:51;6.57;;;5.03;;
13897;SDS011;7019;50.766;4.474;2024-01-06T14:52:19;6.83;;;5.13;;
13897;SDS011;7019;50.766;4.474;2024-01-06T14:54:47;7.17;;;4.13;;
13897;SDS011;7019;50.766;4.474;2024-01-06T14:57:15;6.50;;;4.20;;
13897;SDS011;7019;50.766;4.474;2024-01-06T14:59:42;5.90;;;4.03;;
13897;SDS011;7019;50.766;4.474;2024-01-06T15:02:09;7.87;;;4.80;;
13897;SDS011;7019;50.766;4.474;2024-01-06T15:04:37;6.57;;;4.60;;
13897;SDS011;7019;50.766;4.474;2024-01-06T15:07:04;9.70;;;5.53;;
13897;SDS011;7019;50.766;4.474;2024-01-06T15:09:31;7.77;;;5.00;;